sensor_id;sensor_type;location;lat;lon;timestamp;pressure;altitude;pressure_sealevel;temperature;humidity
82512;BME280;72152;65.012;25.464;2023-10-13T00:01:57;98955.55;;;3.81;73.30
82512;BME280;72152;65.012;25.464;2023-10-13T00:04:57;98969.98;;;3.83;72.92
82512;BME280;72152;65.012;25.464;2023-10-13T00:07:49;98970.33;;;3.83;73.29
82512;BME280;72152;65.012;25.464;2023-10-13T00:10:46;98961.45;;;3.85;73.13
82512;BME280;72152;65.012;25.464;2023-10-13T00:13:37;98981.11;;;3.85;73.28
82512;BME280;72152;65.012;25.464;2023-10-13T00:16:31;98995.20;;;3.84;73.50
82512;BME280;72152;65.012;25.464;2023-10-13T00:19:21;98994.68;;;3.84;73.38
82512;BME280;72152;65.012;25.464;2023-10-13T00:22:15;98997.64;;;3.84;73.60
82512;BME280;72152;65.012;25.464;2023-10-13T00:25:04;99010.69;;;3.84;73.34
82512;BME280;72152;65.012;25.464;2023-10-13T00:28:02;99011.57;;;3.83;73.55
82512;BME280;72152;65.012;25.464;2023-10-13T00:30:56;99017.13;;;3.84;73.62
82512;BME280;72152;65.012;25.464;2023-10-13T00:33:51;99027.90;;;3.84;73.62
82512;BME280;72152;65.012;25.464;2023-10-13T00:36:39;99035.92;;;3.84;73.66
82512;BME280;72152;65.012;25.464;2023-10-13T00:39:29;99044.96;;;3.85;74.22
82512;BME280;72152;65.012;25.464;2023-10-13T00:42:21;99048.95;;;3.85;73.91
82512;BME280;72152;65.012;25.464;2023-10-13T00:45:25;99050.16;;;3.87;73.93
82512;BME280;72152;65.012;25.464;2023-10-13T00:48:14;99067.91;;;3.88;73.79
82512;BME280;72152;65.012;25.464;2023-10-13T00:50:59;99060.27;;;3.87;73.83
82512;BME280;72152;65.012;25.464;2023-10-13T00:53:48;99069.31;;;3.89;73.96
82512;BME280;72152;65.012;25.464;2023-10-13T00:56:33;99074.00;;;3.90;73.91
82512;BME280;72152;65.012;25.464;2023-10-13T00:59:27;99072.96;;;3.90;73.73
82512;BME280;72152;65.012;25.464;2023-10-13T01:02:17;99082.17;;;3.91;73.63
82512;BME280;72152;65.012;25.464;2023-10-13T01:05:25;99081.13;;;3.91;73.34
82512;BME280;72152;65.012;25.464;2023-10-13T01:08:14;99093.65;;;3.92;73.51
82512;BME280;72152;65.012;25.464;2023-10-13T01:10:57;99099.05;;;3.91;73.06
82512;BME280;72152;65.012;25.464;2023-10-13T01:13:48;99088.96;;;3.89;73.22
82512;BME280;72152;65.012;25.464;2023-10-13T01:16:37;99096.45;;;3.87;73.52
82512;BME280;72152;65.012;25.464;2023-10-13T01:19:26;99108.47;;;3.84;73.54
82512;BME280;72152;65.012;25.464;2023-10-13T01:22:19;99106.39;;;3.81;73.73
82512;BME280;72152;65.012;25.464;2023-10-13T01:25:10;99114.74;;;3.78;73.81
82512;BME280;72152;65.012;25.464;2023-10-13T01:27:59;99121.17;;;3.76;74.10
82512;BME280;72152;65.012;25.464;2023-10-13T01:30:46;99126.74;;;3.75;74.03
82512;BME280;72152;65.012;25.464;2023-10-13T01:33:38;99132.48;;;3.76;73.92
82512;BME280;72152;65.012;25.464;2023-10-13T01:36:27;99133.17;;;3.76;73.73
82512;BME280;72152;65.012;25.464;2023-10-13T01:39:17;99130.75;;;3.77;73.97
82512;BME280;72152;65.012;25.464;2023-10-13T01:42:06;99145.70;;;3.79;74.33
82512;BME280;72152;65.012;25.464;2023-10-13T01:44:59;99146.57;;;3.80;74.61
82512;BME280;72152;65.012;25.464;2023-10-13T01:47:59;99146.40;;;3.83;74.74
82512;BME280;72152;65.012;25.464;2023-10-13T01:50:48;99159.09;;;3.86;74.44
82512;BME280;72152;65.012;25.464;2023-10-13T01:53:36;99162.73;;;3.84;74.34
82512;BME280;72152;65.012;25.464;2023-10-13T01:56:23;99170.22;;;3.84;74.46
82512;BME280;72152;65.012;25.464;2023-10-13T01:59:04;99178.57;;;3.86;74.41
82512;BME280;72152;65.012;25.464;2023-10-13T02:01:49;99186.93;;;3.89;74.64
82512;BME280;72152;65.012;25.464;2023-10-13T02:04:33;99189.88;;;3.91;74.54
82512;BME280;72152;65.012;25.464;2023-10-13T02:07:29;99199.80;;;3.92;74.50
82512;BME280;72152;65.012;25.464;2023-10-13T02:10:29;99204.32;;;3.92;73.96
82512;BME280;72152;65.012;25.464;2023-10-13T02:13:24;99203.45;;;3.91;73.55
82512;BME280;72152;65.012;25.464;2023-10-13T02:19:11;99220.33;;;3.87;73.26
82512;BME280;72152;65.012;25.464;2023-10-13T02:21:56;99220.49;;;3.85;73.04
82512;BME280;72152;65.012;25.464;2023-10-13T02:24:44;99227.81;;;3.83;72.89
82512;BME280;72152;65.012;25.464;2023-10-13T02:27:33;99230.94;;;3.82;72.98
82512;BME280;72152;65.012;25.464;2023-10-13T02:30:36;99241.37;;;3.81;73.31
82512;BME280;72152;65.012;25.464;2023-10-13T02:33:26;99245.91;;;3.82;73.36
82512;BME280;72152;65.012;25.464;2023-10-13T02:36:24;99254.42;;;3.81;73.19
82512;BME280;72152;65.012;25.464;2023-10-13T02:39:17;99261.21;;;3.81;73.33
82512;BME280;72152;65.012;25.464;2023-10-13T02:42:06;99266.09;;;3.81;73.54
82512;BME280;72152;65.012;25.464;2023-10-13T02:45:00;99272.70;;;3.80;73.04
82512;BME280;72152;65.012;25.464;2023-10-13T02:47:53;99277.73;;;3.79;73.18
82512;BME280;72152;65.012;25.464;2023-10-13T02:50:54;99283.48;;;3.78;72.98
82512;BME280;72152;65.012;25.464;2023-10-13T02:53:39;99287.31;;;3.78;73.39
82512;BME280;72152;65.012;25.464;2023-10-13T02:56:31;99293.58;;;3.81;73.61
82512;BME280;72152;65.012;25.464;2023-10-13T02:59:28;99296.35;;;3.83;73.36
82512;BME280;72152;65.012;25.464;2023-10-13T03:02:18;99300.52;;;3.83;73.52
82512;BME280;72152;65.012;25.464;2023-10-13T03:05:19;99306.80;;;3.85;73.71
82512;BME280;72152;65.012;25.464;2023-10-13T03:08:16;99310.80;;;3.85;73.49
82512;BME280;72152;65.012;25.464;2023-10-13T03:11:08;99311.67;;;3.86;73.71
82512;BME280;72152;65.012;25.464;2023-10-13T03:14:01;99308.52;;;3.87;73.62
82512;BME280;72152;65.012;25.464;2023-10-13T03:16:48;99310.64;;;3.88;73.44
82512;BME280;72152;65.012;25.464;2023-10-13T03:19:29;99316.04;;;3.89;73.68
82512;BME280;72152;65.012;25.464;2023-10-13T03:22:19;99314.81;;;3.91;73.89
82512;BME280;72152;65.012;25.464;2023-10-13T03:25:09;99326.30;;;3.95;73.69
82512;BME280;72152;65.012;25.464;2023-10-13T03:28:04;99335.87;;;3.96;73.97
82512;BME280;72152;65.012;25.464;2023-10-13T03:31:02;99345.60;;;3.96;73.65
82512;BME280;72152;65.012;25.464;2023-10-13T03:33:55;99339.35;;;3.94;73.61
82512;BME280;72152;65.012;25.464;2023-10-13T03:36:48;99353.96;;;3.95;73.89
82512;BME280;72152;65.012;25.464;2023-10-13T03:39:48;99355.19;;;3.96;73.94
82512;BME280;72152;65.012;25.464;2023-10-13T03:42:36;99355.87;;;3.97;74.08
82512;BME280;72152;65.012;25.464;2023-10-13T03:45:30;99356.92;;;3.97;74.01
82512;BME280;72152;65.012;25.464;2023-10-13T03:48:19;99365.61;;;3.97;74.10
82512;BME280;72152;65.012;25.464;2023-10-13T03:51:20;99371.54;;;3.96;73.92
82512;BME280;72152;65.012;25.464;2023-10-13T03:54:13;99382.34;;;3.97;74.30
82512;BME280;72152;65.012;25.464;2023-10-13T03:56:57;99387.55;;;3.97;74.23
82512;BME280;72152;65.012;25.464;2023-10-13T03:59:53;99395.03;;;3.95;73.96
82512;BME280;72152;65.012;25.464;2023-10-13T04:02:49;99409.12;;;3.95;73.92
82512;BME280;72152;65.012;25.464;2023-10-13T04:05:48;99401.13;;;3.93;73.55
82512;BME280;72152;65.012;25.464;2023-10-13T04:08:46;99408.61;;;3.92;73.54
82512;BME280;72152;65.012;25.464;2023-10-13T04:11:54;99400.23;;;3.88;73.68
82512;BME280;72152;65.012;25.464;2023-10-13T04:14:46;99405.63;;;3.88;73.36
82512;BME280;72152;65.012;25.464;2023-10-13T04:17:55;99406.83;;;3.85;73.37
82512;BME280;72152;65.012;25.464;2023-10-13T04:21:00;99416.41;;;3.83;73.28
82512;BME280;72152;65.012;25.464;2023-10-13T04:24:11;99423.36;;;3.81;73.20
82512;BME280;72152;65.012;25.464;2023-10-13T04:27:10;99432.23;;;3.79;73.28
82512;BME280;72152;65.012;25.464;2023-10-13T04:30:09;99432.04;;;3.76;73.36
82512;BME280;72152;65.012;25.464;2023-10-13T04:33:05;99438.82;;;3.75;73.48
82512;BME280;72152;65.012;25.464;2023-10-13T04:35:57;99440.73;;;3.75;73.48
82512;BME280;72152;65.012;25.464;2023-10-13T04:38:53;99445.09;;;3.76;73.68
82512;BME280;72152;65.012;25.464;2023-10-13T04:41:48;99447.02;;;3.78;73.50
82512;BME280;72152;65.012;25.464;2023-10-13T04:44:43;99454.33;;;3.78;73.22
82512;BME280;72152;65.012;25.464;2023-10-13T04:47:45;99448.39;;;3.74;73.25
82512;BME280;72152;65.012;25.464;2023-10-13T04:50:44;99447.68;;;3.71;73.18
82512;BME280;72152;65.012;25.464;2023-10-13T04:53:29;99453.07;;;3.70;73.40
82512;BME280;72152;65.012;25.464;2023-10-13T04:56:36;99455.52;;;3.68;73.54
82512;BME280;72152;65.012;25.464;2023-10-13T04:59:35;99463.86;;;3.69;73.38
82512;BME280;72152;65.012;25.464;2023-10-13T05:02:41;99465.59;;;3.68;73.37
82512;BME280;72152;65.012;25.464;2023-10-13T05:05:36;99469.08;;;3.68;73.83
82512;BME280;72152;65.012;25.464;2023-10-13T05:08:51;99479.35;;;3.71;73.53
82512;BME280;72152;65.012;25.464;2023-10-13T05:11:50;99485.79;;;3.70;73.62
82512;BME280;72152;65.012;25.464;2023-10-13T05:14:49;99490.98;;;3.69;73.41
82512;BME280;72152;65.012;25.464;2023-10-13T05:17:50;99493.43;;;3.70;73.63
82512;BME280;72152;65.012;25.464;2023-10-13T05:20:50;99496.05;;;3.72;73.76
82512;BME280;72152;65.012;25.464;2023-10-13T05:24:01;99501.98;;;3.75;73.44
82512;BME280;72152;65.012;25.464;2023-10-13T05:26:58;99507.71;;;3.75;73.67
82512;BME280;72152;65.012;25.464;2023-10-13T05:29:54;99510.33;;;3.76;73.58
82512;BME280;72152;65.012;25.464;2023-10-13T05:32:54;99510.16;;;3.78;73.67
82512;BME280;72152;65.012;25.464;2023-10-13T05:35:58;99516.27;;;3.78;73.19
82512;BME280;72152;65.012;25.464;2023-10-13T05:39:01;99516.77;;;3.77;73.32
82512;BME280;72152;65.012;25.464;2023-10-13T05:41:57;99524.79;;;3.79;73.41
82512;BME280;72152;65.012;25.464;2023-10-13T05:44:52;99538.36;;;3.81;73.60
82512;BME280;72152;65.012;25.464;2023-10-13T05:48:00;99545.85;;;3.82;73.44
82512;BME280;72152;65.012;25.464;2023-10-13T05:50:57;99549.16;;;3.83;73.63
82512;BME280;72152;65.012;25.464;2023-10-13T05:53:50;99557.88;;;3.88;73.63
82512;BME280;72152;65.012;25.464;2023-10-13T05:56:50;99552.66;;;3.88;73.61
82512;BME280;72152;65.012;25.464;2023-10-13T05:59:44;99553.89;;;3.91;73.96
82512;BME280;72152;65.012;25.464;2023-10-13T06:02:44;99556.70;;;3.94;73.73
82512;BME280;72152;65.012;25.464;2023-10-13T06:05:45;99561.56;;;3.95;73.40
82512;BME280;72152;65.012;25.464;2023-10-13T06:08:48;99566.10;;;3.99;73.47
82512;BME280;72152;65.012;25.464;2023-10-13T06:11:47;99570.30;;;4.00;73.75
82512;BME280;72152;65.012;25.464;2023-10-13T06:14:47;99571.86;;;4.00;73.47
82512;BME280;72152;65.012;25.464;2023-10-13T06:17:46;99579.01;;;4.01;73.53
82512;BME280;72152;65.012;25.464;2023-10-13T06:20:46;99578.85;;;4.05;73.79
82512;BME280;72152;65.012;25.464;2023-10-13T06:23:44;99588.77;;;4.08;73.54
82512;BME280;72152;65.012;25.464;2023-10-13T06:26:44;99594.02;;;4.09;73.32
82512;BME280;72152;65.012;25.464;2023-10-13T06:29:43;99599.40;;;4.09;73.27
82512;BME280;72152;65.012;25.464;2023-10-13T06:32:32;99600.64;;;4.13;73.48
82512;BME280;72152;65.012;25.464;2023-10-13T06:35:27;99610.93;;;4.19;73.52
82512;BME280;72152;65.012;25.464;2023-10-13T06:38:19;99611.65;;;4.22;73.33
82512;BME280;72152;65.012;25.464;2023-10-13T06:41:11;99614.61;;;4.24;72.88
82512;BME280;72152;65.012;25.464;2023-10-13T06:44:02;99623.14;;;4.23;72.77
82512;BME280;72152;65.012;25.464;2023-10-13T06:46:57;99626.10;;;4.24;73.09
82512;BME280;72152;65.012;25.464;2023-10-13T06:49:50;99633.77;;;4.27;73.09
82512;BME280;72152;65.012;25.464;2023-10-13T06:52:42;99639.52;;;4.27;72.79
82512;BME280;72152;65.012;25.464;2023-10-13T06:55:38;99644.05;;;4.29;72.52
82512;BME280;72152;65.012;25.464;2023-10-13T06:58:29;99644.77;;;4.31;72.81
82512;BME280;72152;65.012;25.464;2023-10-13T07:01:17;99652.08;;;4.33;72.23
82512;BME280;72152;65.012;25.464;2023-10-13T07:04:07;99660.98;;;4.35;72.50
82512;BME280;72152;65.012;25.464;2023-10-13T07:07:00;99665.52;;;4.39;72.54
82512;BME280;72152;65.012;25.464;2023-10-13T07:09:59;99665.73;;;4.43;72.57
82512;BME280;72152;65.012;25.464;2023-10-13T07:12:49;99672.35;;;4.47;72.60
82512;BME280;72152;65.012;25.464;2023-10-13T07:15:41;99675.16;;;4.52;72.62
82512;BME280;72152;65.012;25.464;2023-10-13T07:18:33;99679.54;;;4.56;72.77
82512;BME280;72152;65.012;25.464;2023-10-13T07:21:31;99691.20;;;4.56;72.08
82512;BME280;72152;65.012;25.464;2023-10-13T07:24:22;99695.38;;;4.56;72.59
82512;BME280;72152;65.012;25.464;2023-10-13T07:27:11;99700.27;;;4.58;72.19
82512;BME280;72152;65.012;25.464;2023-10-13T07:30:03;99702.04;;;4.62;72.68
82512;BME280;72152;65.012;25.464;2023-10-13T07:32:55;99708.16;;;4.70;72.45
82512;BME280;72152;65.012;25.464;2023-10-13T07:35:58;99709.91;;;4.73;72.18
82512;BME280;72152;65.012;25.464;2023-10-13T07:38:53;99716.20;;;4.76;72.00
82512;BME280;72152;65.012;25.464;2023-10-13T07:42:02;99721.96;;;4.81;72.36
82512;BME280;72152;65.012;25.464;2023-10-13T07:45:00;99729.13;;;4.84;71.94
82512;BME280;72152;65.012;25.464;2023-10-13T07:47:51;99735.75;;;4.86;71.98
82512;BME280;72152;65.012;25.464;2023-10-13T07:50:47;99739.25;;;4.90;72.10
82512;BME280;72152;65.012;25.464;2023-10-13T07:53:41;99744.52;;;4.94;71.74
82512;BME280;72152;65.012;25.464;2023-10-13T07:56:29;99746.41;;;4.94;71.52
82512;BME280;72152;65.012;25.464;2023-10-13T07:59:19;99755.31;;;4.94;71.54
82512;BME280;72152;65.012;25.464;2023-10-13T08:02:09;99756.70;;;4.95;71.57
82512;BME280;72152;65.012;25.464;2023-10-13T08:05:20;99759.85;;;4.97;71.48
82512;BME280;72152;65.012;25.464;2023-10-13T08:08:26;99764.73;;;5.00;71.18
82512;BME280;72152;65.012;25.464;2023-10-13T08:11:21;99766.13;;;4.97;71.29
82512;BME280;72152;65.012;25.464;2023-10-13T08:14:16;99767.52;;;4.99;71.47
82512;BME280;72152;65.012;25.464;2023-10-13T08:17:09;99763.54;;;5.03;71.64
82512;BME280;72152;65.012;25.464;2023-10-13T08:19:51;99771.05;;;5.07;71.16
82512;BME280;72152;65.012;25.464;2023-10-13T08:22:39;99773.49;;;5.09;71.07
82512;BME280;72152;65.012;25.464;2023-10-13T08:25:24;99771.56;;;5.08;71.21
82512;BME280;72152;65.012;25.464;2023-10-13T08:28:39;99775.41;;;5.09;71.24
82512;BME280;72152;65.012;25.464;2023-10-13T08:31:38;99775.41;;;5.11;71.30
82512;BME280;72152;65.012;25.464;2023-10-13T08:34:35;99777.87;;;5.15;70.89
82512;BME280;72152;65.012;25.464;2023-10-13T08:37:40;99786.95;;;5.20;71.21
82512;BME280;72152;65.012;25.464;2023-10-13T08:40:43;99786.80;;;5.25;70.95
82512;BME280;72152;65.012;25.464;2023-10-13T08:43:47;99789.61;;;5.33;70.99
82512;BME280;72152;65.012;25.464;2023-10-13T08:46:45;99791.91;;;5.41;70.83
82512;BME280;72152;65.012;25.464;2023-10-13T08:49:35;99795.06;;;5.50;70.64
82512;BME280;72152;65.012;25.464;2023-10-13T08:52:30;99799.06;;;5.53;70.21
82512;BME280;72152;65.012;25.464;2023-10-13T08:55:33;99798.71;;;5.52;70.44
82512;BME280;72152;65.012;25.464;2023-10-13T08:58:33;99803.25;;;5.54;70.59
82512;BME280;72152;65.012;25.464;2023-10-13T09:01:45;99808.66;;;5.49;70.18
82512;BME280;72152;65.012;25.464;2023-10-13T09:04:40;99815.66;;;5.52;70.45
82512;BME280;72152;65.012;25.464;2023-10-13T09:07:39;99815.14;;;5.60;70.53
82512;BME280;72152;65.012;25.464;2023-10-13T09:10:31;99819.34;;;5.66;70.34
82512;BME280;72152;65.012;25.464;2023-10-13T09:13:25;99826.51;;;5.68;69.39
82512;BME280;72152;65.012;25.464;2023-10-13T09:16:32;99833.64;;;5.65;68.88
82512;BME280;72152;65.012;25.464;2023-10-13T09:23:07;99842.02;;;5.63;69.25
82512;BME280;72152;65.012;25.464;2023-10-13T09:25:53;99845.14;;;5.55;69.23
82512;BME280;72152;65.012;25.464;2023-10-13T09:28:45;99847.05;;;5.51;69.48
82512;BME280;72152;65.012;25.464;2023-10-13T09:31:35;99850.73;;;5.55;69.52
82512;BME280;72152;65.012;25.464;2023-10-13T09:34:29;99863.30;;;5.56;69.02
82512;BME280;72152;65.012;25.464;2023-10-13T09:37:21;99863.11;;;5.53;68.75
82512;BME280;72152;65.012;25.464;2023-10-13T09:40:12;99867.48;;;5.51;69.24
82512;BME280;72152;65.012;25.464;2023-10-13T09:43:27;99873.94;;;5.56;69.24
82512;BME280;72152;65.012;25.464;2023-10-13T09:46:11;99874.27;;;5.52;69.17
82512;BME280;72152;65.012;25.464;2023-10-13T09:49:09;99883.52;;;5.50;68.85
82512;BME280;72152;65.012;25.464;2023-10-13T09:52:10;99879.50;;;5.48;69.22
82512;BME280;72152;65.012;25.464;2023-10-13T09:55:22;99878.64;;;5.54;69.04
82512;BME280;72152;65.012;25.464;2023-10-13T09:58:14;99888.45;;;5.62;69.52
82512;BME280;72152;65.012;25.464;2023-10-13T10:01:09;99885.86;;;5.74;69.81
82512;BME280;72152;65.012;25.464;2023-10-13T10:04:06;99887.79;;;5.76;69.55
82512;BME280;72152;65.012;25.464;2023-10-13T10:06:59;99890.59;;;5.76;69.17
82512;BME280;72152;65.012;25.464;2023-10-13T10:09:42;99893.22;;;5.80;69.52
82512;BME280;72152;65.012;25.464;2023-10-13T10:12:37;99897.64;;;5.89;69.10
82512;BME280;72152;65.012;25.464;2023-10-13T10:15:34;99898.16;;;5.96;68.82
82512;BME280;72152;65.012;25.464;2023-10-13T10:18:27;99900.98;;;5.99;68.62
82512;BME280;72152;65.012;25.464;2023-10-13T10:21:31;99904.10;;;6.00;68.25
82512;BME280;72152;65.012;25.464;2023-10-13T10:24:29;99912.83;;;5.98;67.82
82512;BME280;72152;65.012;25.464;2023-10-13T10:30:33;99925.05;;;5.96;68.39
82512;BME280;72152;65.012;25.464;2023-10-13T10:33:20;99928.21;;;6.01;68.55
82512;BME280;72152;65.012;25.464;2023-10-13T10:36:29;99929.61;;;6.05;68.50
82512;BME280;72152;65.012;25.464;2023-10-13T10:39:15;99931.90;;;6.12;68.61
82512;BME280;72152;65.012;25.464;2023-10-13T10:42:22;99934.16;;;6.17;68.56
82512;BME280;72152;65.012;25.464;2023-10-13T10:45:16;99932.60;;;6.17;68.41
82512;BME280;72152;65.012;25.464;2023-10-13T10:48:05;99930.16;;;6.12;68.60
82512;BME280;72152;65.012;25.464;2023-10-13T10:51:06;99934.70;;;6.15;68.70
82512;BME280;72152;65.012;25.464;2023-10-13T10:54:03;99936.45;;;6.13;68.58
82512;BME280;72152;65.012;25.464;2023-10-13T10:57:03;99939.76;;;6.11;68.66
82512;BME280;72152;65.012;25.464;2023-10-13T11:00:17;99947.77;;;6.07;68.13
82512;BME280;72152;65.012;25.464;2023-10-13T11:03:13;99950.75;;;6.02;67.93
82512;BME280;72152;65.012;25.464;2023-10-13T11:06:03;99951.27;;;6.02;68.35
82512;BME280;72152;65.012;25.464;2023-10-13T11:08:55;99951.27;;;6.00;68.48
82512;BME280;72152;65.012;25.464;2023-10-13T11:12:08;99955.09;;;5.99;68.78
82512;BME280;72152;65.012;25.464;2023-10-13T11:15:12;99959.98;;;5.99;68.78
82512;BME280;72152;65.012;25.464;2023-10-13T11:18:03;99963.81;;;5.96;69.14
82512;BME280;72152;65.012;25.464;2023-10-13T11:20:55;99970.46;;;5.98;68.68
82512;BME280;72152;65.012;25.464;2023-10-13T11:23:43;99976.38;;;5.92;68.52
82512;BME280;72152;65.012;25.464;2023-10-13T11:26:43;99979.85;;;5.87;69.03
82512;BME280;72152;65.012;25.464;2023-10-13T11:29:38;99985.21;;;5.81;69.03
82512;BME280;72152;65.012;25.464;2023-10-13T11:32:32;99983.33;;;5.83;69.15
82512;BME280;72152;65.012;25.464;2023-10-13T11:35:20;99981.58;;;5.85;69.10
82512;BME280;72152;65.012;25.464;2023-10-13T11:38:24;99976.88;;;5.86;68.57
82512;BME280;72152;65.012;25.464;2023-10-13T11:41:14;99975.33;;;5.88;68.69
82512;BME280;72152;65.012;25.464;2023-10-13T11:43:58;99977.25;;;5.93;68.94
82512;BME280;72152;65.012;25.464;2023-10-13T11:47:16;99983.02;;;5.95;68.11
82512;BME280;72152;65.012;25.464;2023-10-13T11:50:09;99977.77;;;5.93;67.80
82512;BME280;72152;65.012;25.464;2023-10-13T11:56:02;99977.59;;;5.92;67.79
82512;BME280;72152;65.012;25.464;2023-10-13T11:58:42;99983.17;;;5.88;66.92
82512;BME280;72152;65.012;25.464;2023-10-13T12:01:33;99990.84;;;5.85;67.30
82512;BME280;72152;65.012;25.464;2023-10-13T12:04:29;99992.93;;;5.87;67.39
82512;BME280;72152;65.012;25.464;2023-10-13T12:07:17;99999.91;;;5.85;66.68
82512;BME280;72152;65.012;25.464;2023-10-13T12:10:09;99994.98;;;5.81;67.32
82512;BME280;72152;65.012;25.464;2023-10-13T12:13:13;99994.81;;;5.80;67.51
82512;BME280;72152;65.012;25.464;2023-10-13T12:16:02;99996.20;;;5.79;67.75
82512;BME280;72152;65.012;25.464;2023-10-13T12:18:53;99998.11;;;5.77;67.47
82512;BME280;72152;65.012;25.464;2023-10-13T12:21:40;99999.16;;;5.77;67.62
82512;BME280;72152;65.012;25.464;2023-10-13T12:24:27;100004.92;;;5.77;67.25
82512;BME280;72152;65.012;25.464;2023-10-13T12:27:20;100005.45;;;5.77;66.77
82512;BME280;72152;65.012;25.464;2023-10-13T12:30:19;100005.24;;;5.75;66.66
82512;BME280;72152;65.012;25.464;2023-10-13T12:33:17;100003.33;;;5.73;66.55
82512;BME280;72152;65.012;25.464;2023-10-13T12:36:13;100005.43;;;5.75;66.19
82512;BME280;72152;65.012;25.464;2023-10-13T12:39:06;100008.39;;;5.75;66.55
82512;BME280;72152;65.012;25.464;2023-10-13T12:42:07;100014.86;;;5.76;66.37
82512;BME280;72152;65.012;25.464;2023-10-13T12:45:07;100015.73;;;5.76;66.09
82512;BME280;72152;65.012;25.464;2023-10-13T12:48:12;100016.08;;;5.75;66.22
82512;BME280;72152;65.012;25.464;2023-10-13T12:51:10;100009.27;;;5.74;66.43
82512;BME280;72152;65.012;25.464;2023-10-13T12:54:21;100006.29;;;5.73;66.62
82512;BME280;72152;65.012;25.464;2023-10-13T12:57:15;100008.03;;;5.72;66.52
82512;BME280;72152;65.012;25.464;2023-10-13T12:59:58;100011.34;;;5.71;66.67
82512;BME280;72152;65.012;25.464;2023-10-13T13:05:52;100017.45;;;5.72;67.31
82512;BME280;72152;65.012;25.464;2023-10-13T13:08:47;100024.10;;;5.73;67.26
82512;BME280;72152;65.012;25.464;2023-10-13T13:11:30;100027.77;;;5.76;66.75
82512;BME280;72152;65.012;25.464;2023-10-13T13:14:24;100028.45;;;5.74;66.89
82512;BME280;72152;65.012;25.464;2023-10-13T13:17:13;100027.95;;;5.76;67.20
82512;BME280;72152;65.012;25.464;2023-10-13T13:20:02;100027.30;;;5.82;67.21
82512;BME280;72152;65.012;25.464;2023-10-13T13:22:52;100031.88;;;5.87;66.72
82512;BME280;72152;65.012;25.464;2023-10-13T13:25:44;100031.00;;;5.87;66.44
82512;BME280;72152;65.012;25.464;2023-10-13T13:28:36;100028.90;;;5.87;66.75
82512;BME280;72152;65.012;25.464;2023-10-13T13:31:17;100031.02;;;5.90;66.84
82512;BME280;72152;65.012;25.464;2023-10-13T13:34:07;100031.38;;;5.92;66.65
82512;BME280;72152;65.012;25.464;2023-10-13T13:36:56;100032.61;;;5.94;66.59
82512;BME280;72152;65.012;25.464;2023-10-13T13:39:44;100029.63;;;5.94;66.68
82512;BME280;72152;65.012;25.464;2023-10-13T13:42:33;100025.95;;;5.92;66.47
82512;BME280;72152;65.012;25.464;2023-10-13T13:45:29;100026.49;;;5.92;66.77
82512;BME280;72152;65.012;25.464;2023-10-13T13:48:21;100031.20;;;5.92;66.86
82512;BME280;72152;65.012;25.464;2023-10-13T13:51:07;100034.69;;;5.88;66.67
82512;BME280;72152;65.012;25.464;2023-10-13T13:53:55;100032.04;;;5.86;67.09
82512;BME280;72152;65.012;25.464;2023-10-13T13:56:39;100033.10;;;5.87;67.17
82512;BME280;72152;65.012;25.464;2023-10-13T13:59:22;100033.45;;;5.88;67.33
82512;BME280;72152;65.012;25.464;2023-10-13T14:02:15;100027.16;;;5.89;67.58
82512;BME280;72152;65.012;25.464;2023-10-13T14:05:08;100027.00;;;5.89;67.61
82512;BME280;72152;65.012;25.464;2023-10-13T14:07:55;100024.91;;;5.90;67.97
82512;BME280;72152;65.012;25.464;2023-10-13T14:10:35;100021.60;;;5.90;67.71
82512;BME280;72152;65.012;25.464;2023-10-13T14:13:52;100021.41;;;5.88;68.19
82512;BME280;72152;65.012;25.464;2023-10-13T14:16:48;100023.15;;;5.88;68.19
82512;BME280;72152;65.012;25.464;2023-10-13T14:19:41;100015.64;;;5.86;68.21
82512;BME280;72152;65.012;25.464;2023-10-13T14:22:29;100013.52;;;5.82;68.08
82512;BME280;72152;65.012;25.464;2023-10-13T14:25:20;100012.43;;;5.80;68.37
82512;BME280;72152;65.012;25.464;2023-10-13T14:28:17;100019.59;;;5.79;68.04
82512;BME280;72152;65.012;25.464;2023-10-13T14:31:05;100020.29;;;5.80;68.61
82512;BME280;72152;65.012;25.464;2023-10-13T14:36:43;100018.89;;;5.80;68.34
82512;BME280;72152;65.012;25.464;2023-10-13T14:39:29;100014.18;;;5.81;68.61
82512;BME280;72152;65.012;25.464;2023-10-13T14:42:20;100016.33;;;5.83;68.36
82512;BME280;72152;65.012;25.464;2023-10-13T14:45:09;100010.00;;;5.80;68.28
82512;BME280;72152;65.012;25.464;2023-10-13T14:48:03;100004.92;;;5.77;68.24
82512;BME280;72152;65.012;25.464;2023-10-13T14:50:58;100010.30;;;5.73;68.52
82512;BME280;72152;65.012;25.464;2023-10-13T14:56:40;100000.48;;;5.65;68.30
82512;BME280;72152;65.012;25.464;2023-10-13T14:59:29;99995.77;;;5.62;68.38
82512;BME280;72152;65.012;25.464;2023-10-13T15:02:14;99998.02;;;5.60;68.84
82512;BME280;72152;65.012;25.464;2023-10-13T15:05:01;99995.59;;;5.59;68.89
82512;BME280;72152;65.012;25.464;2023-10-13T15:07:44;99994.73;;;5.60;68.86
82512;BME280;72152;65.012;25.464;2023-10-13T15:10:33;99997.65;;;5.56;68.89
82512;BME280;72152;65.012;25.464;2023-10-13T15:13:20;99994.15;;;5.53;68.82
82512;BME280;72152;65.012;25.464;2023-10-13T15:16:19;99992.40;;;5.50;68.93
82512;BME280;72152;65.012;25.464;2023-10-13T15:19:14;99991.33;;;5.48;68.94
82512;BME280;72152;65.012;25.464;2023-10-13T15:22:11;99990.77;;;5.39;69.58
82512;BME280;72152;65.012;25.464;2023-10-13T15:25:07;99995.07;;;5.31;69.40
82512;BME280;72152;65.012;25.464;2023-10-13T15:28:03;99991.56;;;5.27;69.48
82512;BME280;72152;65.012;25.464;2023-10-13T15:30:52;99989.27;;;5.25;69.68
82512;BME280;72152;65.012;25.464;2023-10-13T15:33:49;99996.54;;;5.15;69.95
82512;BME280;72152;65.012;25.464;2023-10-13T15:36:45;99995.46;;;5.11;70.06
82512;BME280;72152;65.012;25.464;2023-10-13T15:39:34;99998.95;;;5.10;70.08
82512;BME280;72152;65.012;25.464;2023-10-13T15:42:17;100000.71;;;5.13;70.56